Time;durP1;ratioP1;P1;durP2;ratioP2;P2;SDS_P1;SDS_P2;PMS_P1;PMS_P2;Temp;Humidity;BMP_temperature;BMP_pressure;BME280_temperature;BME280_humidity;BME280_pressure;Samples;Min_cycle;Max_cycle;Signal;HPM_P1;HPM_P2
2023/07/11 00:01:59;;;;;;;;;;;;;;;19.71;67.34;101657.84;5019197;28;19984;-49
2023/07/11 00:04:24;;;;;;;;;;;;;;;19.67;68.03;101650.03;5017974;28;19921;-48
2023/07/11 00:06:52;;;;;;;;;;;;;;;19.62;67.63;101647.41;5022025;28;19921;-49
2023/07/11 00:09:18;;;;;;;;;;;;;;;19.54;68.22;101647.34;5022453;28;19965;-49
2023/07/11 00:11:43;;;;;;;;;;;;;;;19.49;68.62;101640.38;5008382;28;19973;-50
2023/07/11 00:14:11;;;;;;;;;;;;;;;19.43;68.74;101640.34;5015365;28;19926;-51
2023/07/11 00:16:37;;;;;;;;;;;;;;;19.35;69.70;101636.81;5018965;28;19917;-51
2023/07/11 00:19:03;;;;;;;;;;;;;;;19.30;69.77;101634.22;5017118;28;20276;-52
2023/07/11 00:21:28;;;;;;;;;;;;;;;19.29;70.19;101641.16;5020723;28;20307;-51
2023/07/11 00:24:03;;;;;;;;;;;;;;;19.28;69.63;101635.91;5022199;28;19929;-48
2023/07/11 00:26:28;;;;;;;;;;;;;;;19.25;70.05;101638.53;5019843;28;19921;-51
2023/07/11 00:28:53;;;;;;;;;;;;;;;19.19;70.11;101628.94;5014277;28;20376;-50
2023/07/11 00:31:20;;;;;;;;;;;;;;;19.11;70.72;101633.25;5016239;28;19940;-50
2023/07/11 00:33:45;;;;;;;;;;;;;;;19.05;70.60;101638.44;5009223;28;19925;-50
2023/07/11 00:36:10;;;;;;;;;;;;;;;18.99;71.09;101627.97;5022817;28;20304;-49
2023/07/11 00:38:36;;;;;;;;;;;;;;;18.94;71.96;101633.16;5015698;28;19921;-47
2023/07/11 00:41:01;;;;;;;;;;;;;;;18.92;72.21;101631.38;5016820;28;20731;-48
2023/07/11 00:43:26;;;;;;;;;;;;;;;18.90;72.50;101630.50;5006440;28;19928;-47
2023/07/11 00:46:12;;;;;;;;;;;;;;;18.88;72.68;101632.25;5012460;28;19930;-48
2023/07/11 00:48:38;;;;;;;;;;;;;;;18.85;73.09;101629.59;5017827;28;19920;-47
2023/07/11 00:51:06;;;;;;;;;;;;;;;18.84;73.02;101623.53;5014362;28;19920;-47
2023/07/11 00:53:32;;;;;;;;;;;;;;;18.81;73.07;101631.34;5019610;28;19925;-49
2023/07/11 00:56:00;;;;;;;;;;;;;;;18.76;73.48;101640.84;5000459;28;19917;-48
2023/07/11 00:58:25;;;;;;;;;;;;;;;18.70;73.94;101636.47;5017576;28;20578;-48
2023/07/11 01:00:50;;;;;;;;;;;;;;;18.67;73.93;101638.19;5019722;28;19918;-48
2023/07/11 01:03:16;;;;;;;;;;;;;;;18.62;74.69;101634.63;5012894;28;19984;-47
2023/07/11 01:05:41;;;;;;;;;;;;;;;18.59;75.20;101640.69;5017347;28;20310;-49
2023/07/11 01:08:07;;;;;;;;;;;;;;;18.58;75.97;101640.69;5015972;28;19925;-48
2023/07/11 01:10:32;;;;;;;;;;;;;;;18.57;76.03;101639.81;5018423;28;19959;-48
2023/07/11 01:12:59;;;;;;;;;;;;;;;18.54;75.80;101631.97;5016510;28;19928;-47
2023/07/11 01:15:24;;;;;;;;;;;;;;;18.52;76.25;101631.09;5022993;28;19999;-50
2023/07/11 01:17:49;;;;;;;;;;;;;;;18.49;76.81;101634.53;5019030;28;20024;-47
2023/07/11 01:20:14;;;;;;;;;;;;;;;18.46;76.45;101631.06;5016544;28;19935;-47
2023/07/11 01:22:40;;;;;;;;;;;;;;;18.43;76.73;101634.47;5021922;28;19946;-47
2023/07/11 01:25:14;;;;;;;;;;;;;;;18.39;77.04;101629.25;5024292;28;19932;-47
2023/07/11 01:27:41;;;;;;;;;;;;;;;18.35;77.84;101619.66;5018926;28;19925;-47
2023/07/11 01:30:10;;;;;;;;;;;;;;;18.30;77.74;101621.38;5022919;28;19912;-47
2023/07/11 01:32:35;;;;;;;;;;;;;;;18.25;78.38;101623.91;5022727;28;19917;-45
2023/07/11 01:35:01;;;;;;;;;;;;;;;18.21;78.24;101612.63;5016620;28;19931;-49
2023/07/11 01:37:26;;;;;;;;;;;;;;;18.18;77.78;101617.78;5015981;28;19929;-47
2023/07/11 01:39:51;;;;;;;;;;;;;;;18.14;79.04;101612.53;5023852;28;19928;-47
2023/07/11 01:42:17;;;;;;;;;;;;;;;18.11;78.74;101602.97;5014416;28;20383;-47
2023/07/11 01:44:42;;;;;;;;;;;;;;;18.07;78.98;101601.19;5019673;28;20017;-47
2023/07/11 01:47:07;;;;;;;;;;;;;;;18.05;79.51;101600.31;5017431;28;19921;-47
2023/07/11 01:49:33;;;;;;;;;;;;;;;18.04;80.23;101598.59;5013131;28;19947;-49
2023/07/11 01:52:13;;;;;;;;;;;;;;;18.00;80.20;101595.94;5020099;28;19929;-48
2023/07/11 01:54:38;;;;;;;;;;;;;;;17.93;80.05;101587.19;5013279;28;19996;-47
2023/07/11 01:57:04;;;;;;;;;;;;;;;17.88;80.10;101578.47;5013814;28;20013;-47
2023/07/11 01:59:29;;;;;;;;;;;;;;;17.83;80.41;101580.16;5015108;28;20288;-46
2023/07/11 02:01:54;;;;;;;;;;;;;;;17.78;80.13;101574.06;5019517;28;20702;-49
2023/07/11 02:04:23;;;;;;;;;;;;;;;17.74;80.71;101572.28;5021056;28;20265;-46
2023/07/11 02:06:49;;;;;;;;;;;;;;;17.73;81.20;101573.16;5019612;28;19917;-47
2023/07/11 02:09:14;;;;;;;;;;;;;;;17.67;80.67;101566.97;5019956;28;19925;-47
2023/07/11 02:11:39;;;;;;;;;;;;;;;17.63;81.72;101569.53;5022617;28;20104;-47
2023/07/11 02:14:05;;;;;;;;;;;;;;;17.61;82.04;101560.84;5026107;28;19960;-48
2023/07/11 02:16:30;;;;;;;;;;;;;;;17.60;82.40;101556.50;5024541;28;19949;-47
2023/07/11 02:18:55;;;;;;;;;;;;;;;17.58;82.27;101558.22;5023073;28;19925;-47
2023/07/11 02:21:20;;;;;;;;;;;;;;;17.54;82.39;101552.13;5018638;28;19936;-48
2023/07/11 02:23:46;;;;;;;;;;;;;;;17.53;82.64;101549.47;5025488;28;19961;-47
2023/07/11 02:26:11;;;;;;;;;;;;;;;17.51;82.76;101551.19;5024649;28;19921;-48
2023/07/11 02:28:36;;;;;;;;;;;;;;;17.45;83.03;101541.59;5018115;28;19921;-50
2023/07/11 02:31:01;;;;;;;;;;;;;;;17.45;83.18;101544.22;5023553;28;20406;-46
2023/07/11 02:33:27;;;;;;;;;;;;;;;17.43;83.40;101535.53;5026544;28;20292;-47
2023/07/11 02:35:52;;;;;;;;;;;;;;;17.42;83.56;101536.38;5018787;28;19913;-46
2023/07/11 02:38:17;;;;;;;;;;;;;;;17.40;83.70;101531.16;5021419;28;19993;-47
2023/07/11 02:40:42;;;;;;;;;;;;;;;17.39;84.23;101532.00;5019222;28;19921;-46
2023/07/11 02:43:08;;;;;;;;;;;;;;;17.38;84.35;101525.06;5021106;28;19983;-46
2023/07/11 02:45:33;;;;;;;;;;;;;;;17.35;84.09;101518.94;5021353;28;19928;-48
2023/07/11 02:47:58;;;;;;;;;;;;;;;17.32;84.68;101525.00;5025863;28;19924;-47
2023/07/11 02:50:23;;;;;;;;;;;;;;;17.29;84.98;101518.88;5025607;28;19929;-47
2023/07/11 02:52:49;;;;;;;;;;;;;;;17.26;84.10;101517.16;5007404;28;20447;-47
2023/07/11 02:55:14;;;;;;;;;;;;;;;17.24;85.57;101505.00;5017676;28;20002;-46
2023/07/11 02:57:40;;;;;;;;;;;;;;;17.21;85.77;101508.41;5018082;28;19930;-47
2023/07/11 03:00:07;;;;;;;;;;;;;;;17.16;85.28;101507.50;5022501;28;19936;-46
2023/07/11 03:02:32;;;;;;;;;;;;;;;17.14;85.37;101504.00;5016503;28;20284;-46
2023/07/11 03:04:57;;;;;;;;;;;;;;;17.13;85.83;101497.06;5018094;28;20397;-47
2023/07/11 03:07:22;;;;;;;;;;;;;;;17.12;86.27;101495.34;5028554;28;20328;-46
2023/07/11 03:09:47;;;;;;;;;;;;;;;17.11;85.06;101496.19;5023035;28;19928;-46
2023/07/11 03:12:13;;;;;;;;;;;;;;;17.09;85.33;101493.56;5005401;28;19936;-47
2023/07/11 03:14:38;;;;;;;;;;;;;;;17.08;85.50;101478.81;5016309;28;20323;-49
2023/07/11 03:17:03;;;;;;;;;;;;;;;17.06;81.03;101482.28;5021641;28;20348;-47
2023/07/11 03:19:29;;;;;;;;;;;;;;;17.05;83.20;101477.94;5020657;28;19925;-48
2023/07/11 03:21:54;;;;;;;;;;;;;;;17.04;81.84;101471.84;5019747;28;19924;-47
2023/07/11 03:24:19;;;;;;;;;;;;;;;17.03;84.36;101471.84;5022828;28;19941;-47
2023/07/11 03:26:46;;;;;;;;;;;;;;;17.02;81.99;101468.38;5025719;28;20291;-47
2023/07/11 03:29:13;;;;;;;;;;;;;;;17.01;82.24;101474.41;5017299;28;19922;-48
2023/07/11 03:31:38;;;;;;;;;;;;;;;17.02;84.61;101473.56;5022394;28;19922;-46
2023/07/11 03:34:04;;;;;;;;;;;;;;;16.98;83.96;101471.78;5019260;28;19940;-47
2023/07/11 03:36:29;;;;;;;;;;;;;;;16.98;82.97;101468.31;5022757;28;20187;-48
2023/07/11 03:38:54;;;;;;;;;;;;;;;16.98;83.93;101465.72;5016102;28;20008;-49
2023/07/11 03:41:19;;;;;;;;;;;;;;;16.96;82.86;101464.84;5016178;28;20693;-52
2023/07/11 03:43:45;;;;;;;;;;;;;;;16.92;83.68;101466.50;5022161;28;20295;-50
2023/07/11 03:46:10;;;;;;;;;;;;;;;16.92;84.46;101470.84;5021848;28;19923;-49
2023/07/11 03:48:35;;;;;;;;;;;;;;;16.89;86.18;101466.50;5021739;28;20364;-51
2023/07/11 03:51:01;;;;;;;;;;;;;;;16.86;86.11;101463.84;5007881;28;19921;-51
2023/07/11 03:53:26;;;;;;;;;;;;;;;16.85;86.01;101469.88;5022211;28;19983;-51
2023/07/11 03:55:51;;;;;;;;;;;;;;;16.85;86.10;101468.16;5019461;28;19925;-51
2023/07/11 03:58:17;;;;;;;;;;;;;;;16.82;86.38;101464.69;5017568;28;19975;-51
2023/07/11 04:00:42;;;;;;;;;;;;;;;16.81;86.56;101456.03;5022645;28;19928;-49
2023/07/11 04:03:07;;;;;;;;;;;;;;;16.79;84.74;101456.84;5016491;28;20299;-50
2023/07/11 04:05:32;;;;;;;;;;;;;;;16.79;81.49;101451.63;5019254;28;19922;-51
2023/07/11 04:07:58;;;;;;;;;;;;;;;16.81;84.15;101450.81;5019419;28;19925;-50
2023/07/11 04:10:23;;;;;;;;;;;;;;;16.82;82.94;101449.09;5024845;28;20274;-50
2023/07/11 04:12:50;;;;;;;;;;;;;;;16.87;84.75;101455.22;5022862;28;19940;-49
2023/07/11 04:15:15;;;;;;;;;;;;;;;16.86;82.33;101448.25;5027193;28;20630;-47
2023/07/11 04:17:41;;;;;;;;;;;;;;;16.88;83.90;101451.75;5022158;28;20364;-49
2023/07/11 04:20:06;;;;;;;;;;;;;;;16.88;83.07;101450.03;5027502;28;19924;-47
2023/07/11 04:22:31;;;;;;;;;;;;;;;16.91;81.72;101449.19;5027919;28;20303;-47
2023/07/11 04:24:57;;;;;;;;;;;;;;;16.92;80.30;101443.13;5028883;28;20019;-46
2023/07/11 04:27:23;;;;;;;;;;;;;;;16.96;82.00;101444.06;5031957;28;20003;-47
2023/07/11 04:29:48;;;;;;;;;;;;;;;16.97;83.21;101438.84;5021479;28;19917;-51
2023/07/11 04:32:14;;;;;;;;;;;;;;;17.12;83.08;101439.03;5019915;28;19921;-49
2023/07/11 04:34:40;;;;;;;;;;;;;;;17.77;81.01;101434.44;5010500;28;19933;-50
2023/07/11 04:37:05;;;;;;;;;;;;;;;18.52;79.36;101433.16;5007752;28;19925;-47
2023/07/11 04:39:31;;;;;;;;;;;;;;;19.18;75.54;101429.06;5027197;28;20429;-51
2023/07/11 04:41:56;;;;;;;;;;;;;;;19.76;77.62;101426.50;5022988;28;19922;-51
2023/07/11 04:44:21;;;;;;;;;;;;;;;20.31;75.34;101425.53;5023176;28;20379;-50
2023/07/11 04:46:47;;;;;;;;;;;;;;;20.80;73.91;101414.91;5024221;28;19925;-49
2023/07/11 04:49:12;;;;;;;;;;;;;;;21.31;72.30;101418.09;5027824;28;20297;-49
2023/07/11 04:51:37;;;;;;;;;;;;;;;21.69;70.14;101415.16;5028121;28;19964;-51
2023/07/11 04:54:02;;;;;;;;;;;;;;;22.04;69.29;101406.09;5027995;28;20330;-51
2023/07/11 04:56:28;;;;;;;;;;;;;;;22.25;68.59;101405.88;5026048;28;19921;-49
2023/07/11 04:58:53;;;;;;;;;;;;;;;22.45;67.23;101416.16;5005854;28;19940;-51
2023/07/11 05:01:18;;;;;;;;;;;;;;;22.78;66.72;101406.09;5029460;28;19917;-49
2023/07/11 05:03:44;;;;;;;;;;;;;;;23.01;64.93;101410.16;5029059;28;19967;-48
2023/07/11 05:06:09;;;;;;;;;;;;;;;23.30;64.55;101403.63;5021885;28;19951;-47
2023/07/11 05:08:35;;;;;;;;;;;;;;;23.14;63.75;101405.59;5020773;28;19913;-48
2023/07/11 05:11:11;;;;;;;;;;;;;;;23.00;64.26;101399.72;5020712;28;19929;-48
2023/07/11 05:13:36;;;;;;;;;;;;;;;22.96;64.76;101398.00;5018268;28;19925;-50
2023/07/11 05:16:03;;;;;;;;;;;;;;;23.15;63.75;101394.22;5020892;28;20436;-48
2023/07/11 05:18:28;;;;;;;;;;;;;;;23.34;62.56;101388.66;5017923;28;19951;-49
2023/07/11 05:20:54;;;;;;;;;;;;;;;23.62;62.76;101386.50;5024085;28;19921;-48
2023/07/11 05:23:20;;;;;;;;;;;;;;;24.02;61.99;101387.47;5018889;28;19921;-51
2023/07/11 05:25:46;;;;;;;;;;;;;;;24.22;61.23;101375.72;5023342;28;19948;-50
2023/07/11 05:28:13;;;;;;;;;;;;;;;24.12;59.15;101376.78;5023747;28;19921;-48
2023/07/11 05:30:38;;;;;;;;;;;;;;;23.84;62.74;101369.44;5023915;28;20299;-48
2023/07/11 05:33:04;;;;;;;;;;;;;;;23.94;61.93;101373.63;5019784;28;19917;-50
2023/07/11 05:35:29;;;;;;;;;;;;;;;24.19;60.61;101374.00;5015080;28;19928;-48
2023/07/11 05:37:54;;;;;;;;;;;;;;;24.38;59.40;101374.53;5023174;28;20068;-50
2023/07/11 05:40:20;;;;;;;;;;;;;;;24.57;59.18;101373.25;5029500;28;20442;-51
2023/07/11 05:42:45;;;;;;;;;;;;;;;24.77;57.98;101380.69;5028323;28;20287;-51
2023/07/11 05:45:10;;;;;;;;;;;;;;;24.80;58.14;101371.84;5024408;28;20016;-50
2023/07/11 05:47:35;;;;;;;;;;;;;;;24.85;57.26;101377.88;5028855;28;19921;-51
2023/07/11 05:50:00;;;;;;;;;;;;;;;24.89;55.81;101371.66;5017436;28;19921;-51
2023/07/11 05:52:26;;;;;;;;;;;;;;;24.91;55.97;101371.59;5027706;28;20284;-49
2023/07/11 05:54:51;;;;;;;;;;;;;;;25.07;58.25;101370.38;5026359;28;19935;-49
2023/07/11 05:57:16;;;;;;;;;;;;;;;25.31;56.96;101361.88;5022647;28;20016;-49
2023/07/11 05:59:41;;;;;;;;;;;;;;;25.30;57.62;101348.75;5024990;28;19968;-48
2023/07/11 06:02:08;;;;;;;;;;;;;;;25.31;55.97;101356.63;5007339;28;19921;-48
2023/07/11 06:04:33;;;;;;;;;;;;;;;25.34;52.42;101353.91;5025254;28;19932;-49
2023/07/11 06:06:58;;;;;;;;;;;;;;;25.33;54.00;101354.81;5022559;28;19947;-51
2023/07/11 06:09:25;;;;;;;;;;;;;;;25.38;55.07;101352.06;5024396;28;20354;-51
2023/07/11 06:11:50;;;;;;;;;;;;;;;25.37;54.55;101353.84;5025881;28;19921;-51
2023/07/11 06:14:16;;;;;;;;;;;;;;;25.33;56.20;101346.06;5022958;28;19932;-49
2023/07/11 06:16:42;;;;;;;;;;;;;;;25.42;53.45;101351.06;5022080;28;19921;-52
2023/07/11 06:19:08;;;;;;;;;;;;;;;25.51;54.13;101350.84;5026522;28;19927;-52
2023/07/11 06:21:33;;;;;;;;;;;;;;;25.62;52.59;101348.78;5023270;28;20007;-48
2023/07/11 06:23:58;;;;;;;;;;;;;;;25.58;51.78;101341.88;5017314;28;19976;-51
2023/07/11 06:26:24;;;;;;;;;;;;;;;25.53;51.37;101343.75;5010405;28;19928;-51
2023/07/11 06:28:49;;;;;;;;;;;;;;;25.49;52.34;101346.53;5019979;28;19996;-48
2023/07/11 06:31:15;;;;;;;;;;;;;;;25.50;53.24;101338.59;5027903;28;19921;-50
2023/07/11 06:33:40;;;;;;;;;;;;;;;25.53;55.76;101341.13;5013403;28;20004;-48
2023/07/11 06:36:06;;;;;;;;;;;;;;;25.57;52.41;101340.16;5018005;28;19935;-49
2023/07/11 06:38:31;;;;;;;;;;;;;;;25.47;52.50;101336.00;5018890;28;20004;-50
2023/07/11 06:40:57;;;;;;;;;;;;;;;25.48;52.14;101340.41;5017875;28;20016;-51
2023/07/11 06:43:23;;;;;;;;;;;;;;;25.43;52.94;101341.44;5018679;28;19925;-52
2023/07/11 06:45:50;;;;;;;;;;;;;;;25.57;54.34;101334.00;5015806;28;20318;-49
2023/07/11 06:48:16;;;;;;;;;;;;;;;25.58;51.99;101336.59;5019402;28;19917;-48
2023/07/11 06:50:41;;;;;;;;;;;;;;;25.71;52.45;101336.28;5018225;28;19929;-47
2023/07/11 06:53:07;;;;;;;;;;;;;;;25.64;50.69;101339.06;5021838;28;19974;-47
2023/07/11 06:55:32;;;;;;;;;;;;;;;25.74;51.74;101336.25;5017056;28;19925;-47
2023/07/11 06:57:57;;;;;;;;;;;;;;;26.03;52.70;101331.03;5014228;28;19941;-49
2023/07/11 07:00:24;;;;;;;;;;;;;;;26.13;51.76;101332.47;5021914;28;19921;-47
2023/07/11 07:02:50;;;;;;;;;;;;;;;26.13;51.80;101335.09;5015472;28;20565;-47
2023/07/11 07:05:15;;;;;;;;;;;;;;;26.11;50.31;101326.38;5015259;28;20008;-47
2023/07/11 07:07:40;;;;;;;;;;;;;;;26.20;51.64;101330.50;5021207;28;19928;-48
2023/07/11 07:10:06;;;;;;;;;;;;;;;26.24;51.58;101326.88;5016983;28;20039;-47
2023/07/11 07:12:31;;;;;;;;;;;;;;;26.27;50.56;101331.19;5022380;28;19932;-49
2023/07/11 07:14:56;;;;;;;;;;;;;;;26.19;50.88;101328.78;5020194;28;20296;-48
2023/07/11 07:17:21;;;;;;;;;;;;;;;26.08;51.62;101330.88;5027129;28;19926;-47
2023/07/11 07:19:47;;;;;;;;;;;;;;;26.29;51.69;101332.03;5019072;28;19952;-48
2023/07/11 07:22:12;;;;;;;;;;;;;;;26.46;50.35;101335.91;5012160;28;19979;-50
2023/07/11 07:24:37;;;;;;;;;;;;;;;26.70;49.70;101326.38;5007403;28;19921;-46
2023/07/11 07:27:03;;;;;;;;;;;;;;;26.96;48.97;101336.09;5017894;28;19925;-50
2023/07/11 07:29:28;;;;;;;;;;;;;;;27.08;48.06;101326.06;5017310;28;19928;-48
2023/07/11 07:31:53;;;;;;;;;;;;;;;27.12;48.38;101328.56;5017350;28;19928;-49
2023/07/11 07:34:18;;;;;;;;;;;;;;;27.27;47.59;101319.25;5021851;28;19917;-52
2023/07/11 07:36:44;;;;;;;;;;;;;;;27.33;45.75;101321.69;5013129;28;19922;-50
2023/07/11 07:39:09;;;;;;;;;;;;;;;27.33;47.38;101312.91;5021038;28;19961;-48
2023/07/11 07:41:34;;;;;;;;;;;;;;;27.45;45.54;101320.41;5015062;28;20007;-49
2023/07/11 07:44:00;;;;;;;;;;;;;;;27.61;46.58;101304.88;5015620;28;19975;-50
2023/07/11 07:46:25;;;;;;;;;;;;;;;27.69;44.95;101309.00;5018369;28;19921;-50
2023/07/11 07:48:50;;;;;;;;;;;;;;;27.85;45.82;101303.13;5016679;28;19924;-48
2023/07/11 07:51:17;;;;;;;;;;;;;;;27.82;45.29;101304.13;5020345;28;19922;-48
2023/07/11 07:53:43;;;;;;;;;;;;;;;27.86;45.76;101303.09;5016786;28;19927;-49
2023/07/11 07:56:10;;;;;;;;;;;;;;;27.89;46.43;101302.13;5020857;28;20314;-50
2023/07/11 07:58:35;;;;;;;;;;;;;;;27.97;44.69;101297.41;5010944;28;19921;-50
2023/07/11 08:01:03;;;;;;;;;;;;;;;28.15;46.20;101291.44;5015933;28;19925;-51
2023/07/11 08:03:28;;;;;;;;;;;;;;;28.22;45.83;101298.22;5020757;28;19928;-51
2023/07/11 08:05:54;;;;;;;;;;;;;;;28.19;44.77;101298.31;5014367;28;20303;-48
2023/07/11 08:08:20;;;;;;;;;;;;;;;28.22;42.89;101295.56;5016553;28;19972;-48
2023/07/11 08:10:45;;;;;;;;;;;;;;;28.24;44.85;101296.38;5016586;28;19922;-47
2023/07/11 08:13:10;;;;;;;;;;;;;;;28.38;44.49;101292.34;5018776;28;20363;-50
2023/07/11 08:15:35;;;;;;;;;;;;;;;28.51;43.74;101297.09;5014533;28;19925;-48
2023/07/11 08:18:00;;;;;;;;;;;;;;;28.56;42.00;101288.97;5013270;28;19925;-50
2023/07/11 08:20:26;;;;;;;;;;;;;;;28.47;43.33;101294.66;5015394;28;19921;-47
2023/07/11 08:22:51;;;;;;;;;;;;;;;28.50;42.41;101297.16;5012048;28;19932;-52
2023/07/11 08:25:16;;;;;;;;;;;;;;;28.53;41.82;101286.47;5016581;28;19927;-51
2023/07/11 08:27:42;;;;;;;;;;;;;;;28.49;42.47;101279.56;5016263;28;19917;-50
2023/07/11 08:30:07;;;;;;;;;;;;;;;28.44;43.00;101286.81;5011977;28;20307;-51
2023/07/11 08:32:32;;;;;;;;;;;;;;;28.44;42.51;101289.47;5011584;28;19934;-49
2023/07/11 08:34:58;;;;;;;;;;;;;;;28.56;43.34;101288.97;5009964;28;19959;-48
2023/07/11 08:37:23;;;;;;;;;;;;;;;28.79;43.50;101280.97;5016383;28;19921;-47
2023/07/11 08:39:48;;;;;;;;;;;;;;;28.82;41.49;101278.19;5013181;28;19921;-49
2023/07/11 08:42:32;;;;;;;;;;;;;;;29.01;41.35;101273.03;5009845;28;19922;-48
2023/07/11 08:45:16;;;;;;;;;;;;;;;29.14;41.78;101273.38;5011166;28;20004;-47
2023/07/11 08:47:47;;;;;;;;;;;;;;;29.33;41.94;101274.28;5013275;28;20040;-49
2023/07/11 08:50:14;;;;;;;;;;;;;;;29.49;42.24;101268.31;5017395;28;20716;-49
2023/07/11 08:52:41;;;;;;;;;;;;;;;29.59;40.32;101267.00;5019450;28;19917;-49
2023/07/11 08:55:12;;;;;;;;;;;;;;;29.31;40.42;101276.16;5018279;28;19943;-49
2023/07/11 08:57:41;;;;;;;;;;;;;;;29.15;41.18;101263.63;5019311;28;20273;-49
2023/07/11 09:00:08;;;;;;;;;;;;;;;29.09;41.20;101264.75;5016985;28;20743;-49
2023/07/11 09:02:39;;;;;;;;;;;;;;;29.01;41.85;101278.31;5018049;28;20343;-49
2023/07/11 09:05:05;;;;;;;;;;;;;;;28.74;42.01;101268.84;5018030;28;19971;-48
2023/07/11 09:07:31;;;;;;;;;;;;;;;28.50;42.98;101271.56;5017962;28;19925;-51
2023/07/11 09:09:56;;;;;;;;;;;;;;;28.42;43.00;101267.50;5022218;28;19917;-49
2023/07/11 09:12:41;;;;;;;;;;;;;;;28.44;42.70;101263.00;5025085;28;19952;-50
2023/07/11 09:15:16;;;;;;;;;;;;;;;28.68;42.94;101262.00;5019679;28;19917;-50
2023/07/11 09:17:50;;;;;;;;;;;;;;;28.84;42.66;101260.47;5021597;28;19932;-49
2023/07/11 09:20:24;;;;;;;;;;;;;;;28.84;42.08;101259.59;5021814;28;19920;-50
2023/07/11 09:23:09;;;;;;;;;;;;;;;28.85;42.66;101256.88;5008101;28;20379;-48
2023/07/11 09:25:37;;;;;;;;;;;;;;;28.89;42.93;101256.78;5020619;28;19964;-48
2023/07/11 09:28:07;;;;;;;;;;;;;;;28.82;41.69;101254.38;5017995;28;20451;-49
2023/07/11 09:31:04;;;;;;;;;;;;;;;28.79;42.38;101246.56;5023420;28;19923;-49
2023/07/11 09:33:34;;;;;;;;;;;;;;;28.78;41.44;101252.78;4982135;28;19963;-49
2023/07/11 09:36:01;;;;;;;;;;;;;;;28.80;41.15;101253.56;5018486;28;19921;-46
2023/07/11 09:38:35;;;;;;;;;;;;;;;28.84;42.41;101251.66;5017477;28;19929;-47
2023/07/11 09:41:03;;;;;;;;;;;;;;;28.98;42.50;101241.38;5018492;28;19928;-49
2023/07/11 09:43:28;;;;;;;;;;;;;;;29.07;40.47;101242.78;5017485;28;19929;-47
2023/07/11 09:45:54;;;;;;;;;;;;;;;29.14;41.85;101244.25;5019463;28;19925;-47
2023/07/11 09:48:31;;;;;;;;;;;;;;;29.23;41.35;101240.31;5020449;28;19928;-49
2023/07/11 09:51:24;;;;;;;;;;;;;;;29.02;40.22;101240.31;5020270;28;19966;-48
2023/07/11 09:53:49;;;;;;;;;;;;;;;28.93;41.16;101237.19;5021784;28;19921;-47
2023/07/11 09:56:16;;;;;;;;;;;;;;;28.85;41.67;101229.56;5018439;28;19917;-48
2023/07/11 09:58:46;;;;;;;;;;;;;;;29.01;41.52;101222.72;5025572;28;19921;-47
2023/07/11 10:01:17;;;;;;;;;;;;;;;29.03;41.03;101225.31;5020573;28;19918;-48
2023/07/11 10:03:45;;;;;;;;;;;;;;;28.76;42.02;101214.09;5020438;28;19925;-49
2023/07/11 10:06:24;;;;;;;;;;;;;;;28.78;42.01;101209.56;5019633;28;19924;-48
2023/07/11 10:08:49;;;;;;;;;;;;;;;28.69;42.11;101224.03;5020817;28;19928;-49
2023/07/11 10:11:15;;;;;;;;;;;;;;;28.68;42.49;101213.53;5019625;28;19966;-50
2023/07/11 10:13:41;;;;;;;;;;;;;;;28.67;43.05;101223.25;5014932;28;19930;-51
2023/07/11 10:16:06;;;;;;;;;;;;;;;28.75;41.84;101207.91;5023065;28;20039;-48
2023/07/11 10:18:34;;;;;;;;;;;;;;;28.82;41.37;101204.09;5022137;28;20607;-52
2023/07/11 10:21:12;;;;;;;;;;;;;;;28.92;41.33;101208.97;5013433;28;19972;-47
2023/07/11 10:23:37;;;;;;;;;;;;;;;28.71;41.68;101216.06;5020253;28;19917;-52
2023/07/11 10:26:19;;;;;;;;;;;;;;;28.76;41.86;101211.44;5015853;28;19986;-54
2023/07/11 10:28:45;;;;;;;;;;;;;;;28.66;41.81;101208.31;5018615;28;20387;-50
2023/07/11 10:31:16;;;;;;;;;;;;;;;28.82;42.08;101192.66;5015132;28;19928;-47
2023/07/11 10:33:59;;;;;;;;;;;;;;;29.17;41.84;101203.50;5019411;28;19987;-50
2023/07/11 10:36:30;;;;;;;;;;;;;;;29.35;41.74;101192.09;5013096;28;19956;-47
2023/07/11 10:38:56;;;;;;;;;;;;;;;29.46;41.34;101192.47;5016787;28;21286;-51
2023/07/11 10:41:39;;;;;;;;;;;;;;;29.55;41.44;101199.19;5016364;28;19917;-46
2023/07/11 10:44:11;;;;;;;;;;;;;;;29.62;41.48;101193.53;5012975;28;19921;-50
2023/07/11 10:46:42;;;;;;;;;;;;;;;29.77;40.56;101188.44;5019205;28;19917;-47
2023/07/11 10:49:43;;;;;;;;;;;;;;;30.00;39.89;101190.00;5014286;28;20374;-48
2023/07/11 10:52:11;;;;;;;;;;;;;;;30.02;38.88;101182.84;4944766;28;20304;-48
2023/07/11 10:54:56;;;;;;;;;;;;;;;29.99;38.74;101188.28;5007008;28;19921;-47
2023/07/11 10:57:25;;;;;;;;;;;;;;;29.98;39.59;101194.53;5007359;28;19945;-47
2023/07/11 10:59:50;;;;;;;;;;;;;;;29.92;39.81;101183.28;5021085;28;19921;-51
2023/07/11 11:02:17;;;;;;;;;;;;;;;29.94;40.57;101179.69;5016989;28;19925;-50
2023/07/11 11:04:58;;;;;;;;;;;;;;;29.93;40.03;101178.84;5015397;28;19918;-50
2023/07/11 11:07:44;;;;;;;;;;;;;;;29.97;39.44;101175.09;5018146;28;19925;-50
2023/07/11 11:10:29;;;;;;;;;;;;;;;29.98;39.04;101183.94;5012926;28;19943;-55
2023/07/11 11:12:59;;;;;;;;;;;;;;;30.02;38.74;101173.09;5018549;28;20377;-48
2023/07/11 11:15:43;;;;;;;;;;;;;;;30.10;38.38;101176.28;5025623;28;19925;-51
2023/07/11 11:18:27;;;;;;;;;;;;;;;30.11;40.00;101162.09;5022087;28;20392;-49
2023/07/11 11:21:06;;;;;;;;;;;;;;;30.22;38.73;101158.91;5017511;28;20391;-50
2023/07/11 11:23:38;;;;;;;;;;;;;;;30.33;38.95;101164.50;5024121;28;20272;-49
2023/07/11 11:26:15;;;;;;;;;;;;;;;30.37;38.28;101155.47;5024279;28;19921;-50
2023/07/11 11:28:40;;;;;;;;;;;;;;;30.40;38.75;101159.78;5020841;28;19922;-54
2023/07/11 11:31:12;;;;;;;;;;;;;;;30.11;38.55;101156.78;5025511;28;19913;-54
2023/07/11 11:33:38;;;;;;;;;;;;;;;30.12;39.35;101154.97;5025733;28;20467;-55
2023/07/11 11:36:18;;;;;;;;;;;;;;;30.11;38.60;101151.47;5024632;28;19932;-53
2023/07/11 11:38:58;;;;;;;;;;;;;;;30.07;38.25;101144.56;5022766;28;20418;-54
2023/07/11 11:41:36;;;;;;;;;;;;;;;30.11;38.41;101142.66;5022694;28;19924;-55
2023/07/11 11:44:03;;;;;;;;;;;;;;;30.31;39.10;101147.81;5022341;28;19921;-55
2023/07/11 11:46:28;;;;;;;;;;;;;;;30.47;38.30;101134.66;5020001;28;20315;-54
2023/07/11 11:48:56;;;;;;;;;;;;;;;30.66;37.22;101134.56;5024313;28;20442;-53
2023/07/11 11:51:22;;;;;;;;;;;;;;;30.86;37.90;101136.22;5018069;28;19929;-53
2023/07/11 11:54:16;;;;;;;;;;;;;;;30.98;36.85;101131.13;5055740;28;19925;-54
2023/07/11 11:56:46;;;;;;;;;;;;;;;31.07;36.85;101126.28;5058069;28;19921;-50
2023/07/11 11:59:20;;;;;;;;;;;;;;;31.19;36.71;101126.47;5058188;28;19924;-54
2023/07/11 12:01:57;;;;;;;;;;;;;;;31.17;35.69;101130.13;5052078;28;19916;-54
2023/07/11 12:04:29;;;;;;;;;;;;;;;31.26;36.48;101126.19;5039295;27;19925;-52
2023/07/11 12:07:04;;;;;;;;;;;;;;;31.29;36.06;101131.31;5072377;27;20401;-55
2023/07/11 12:09:32;;;;;;;;;;;;;;;31.13;36.35;101123.28;5070150;28;20142;-52
2023/07/11 12:12:07;;;;;;;;;;;;;;;31.06;37.03;101113.91;5069220;28;19928;-54
2023/07/11 12:14:57;;;;;;;;;;;;;;;31.07;37.50;101111.19;5070865;28;19927;-55
2023/07/11 12:17:25;;;;;;;;;;;;;;;31.22;36.56;101112.16;5074897;28;19924;-54
2023/07/11 12:19:59;;;;;;;;;;;;;;;31.23;37.02;101104.09;5074813;28;19924;-54
2023/07/11 12:22:26;;;;;;;;;;;;;;;31.23;36.98;101106.75;5073333;28;19965;-53
2023/07/11 12:25:03;;;;;;;;;;;;;;;31.17;37.19;101103.56;5072100;28;19916;-53
2023/07/11 12:27:28;;;;;;;;;;;;;;;31.14;37.41;101106.41;5070304;28;19916;-53
2023/07/11 12:29:54;;;;;;;;;;;;;;;31.23;37.43;101095.28;5073028;27;19961;-51
2023/07/11 12:32:31;;;;;;;;;;;;;;;31.34;37.22;101094.72;5070021;28;19925;-51
2023/07/11 12:34:57;;;;;;;;;;;;;;;31.30;36.65;101099.34;5072464;28;19917;-53
2023/07/11 12:37:24;;;;;;;;;;;;;;;31.30;37.17;101093.16;5071325;28;19943;-49
2023/07/11 12:40:10;;;;;;;;;;;;;;;31.28;37.69;101089.75;5073079;28;19924;-53